Rosholt, South Dakota
Current Conditions -  °F | °C
As of 4:36 AM on Thursday 27 Nov 2014 (Local Time) from KETH Reporting Station
Clear Clear  
Wind Chill: -9°   Ceiling: Unl
Heat Index: -9°   Visibility: 10mi
Dew Point: -13°   Wind: 3mph
Humidity: 84%   Direction: 290°WNW
Pressure: 30.56"   Gusts: NA
Location:  45.87°N, 96.73°W
Report Text: KETH 271036Z AUTO 29003KT 10SM CLR M23/M25 A3056 RMK AO2
Loading
Personal Weather Stations






























Interactive Weather Map New forecast layout! Learn more

10-Day Weather Forecast

Advertisements
Track Severe Weather on mobile